sensor_id;sensor_type;location;lat;lon;timestamp;P1;durP1;ratioP1;P2;durP2;ratioP2
8225;SDS011;4154;48.810;9.012;2023-07-13T00:01:57;2.90;;;1.30;;
8225;SDS011;4154;48.810;9.012;2023-07-13T00:04:24;1.60;;;1.30;;
8225;SDS011;4154;48.810;9.012;2023-07-13T00:06:50;2.53;;;1.35;;
8225;SDS011;4154;48.810;9.012;2023-07-13T00:09:17;2.67;;;1.30;;
8225;SDS011;4154;48.810;9.012;2023-07-13T00:11:44;2.92;;;1.30;;
8225;SDS011;4154;48.810;9.012;2023-07-13T00:14:14;3.20;;;1.40;;
8225;SDS011;4154;48.810;9.012;2023-07-13T00:16:41;2.13;;;1.38;;
8225;SDS011;4154;48.810;9.012;2023-07-13T00:19:10;4.00;;;1.50;;
8225;SDS011;4154;48.810;9.012;2023-07-13T00:21:37;2.47;;;1.30;;
8225;SDS011;4154;48.810;9.012;2023-07-13T00:24:05;6.10;;;1.70;;
8225;SDS011;4154;48.810;9.012;2023-07-13T00:26:33;2.65;;;1.30;;
8225;SDS011;4154;48.810;9.012;2023-07-13T00:28:59;2.45;;;1.30;;
8225;SDS011;4154;48.810;9.012;2023-07-13T00:31:25;3.42;;;1.20;;
8225;SDS011;4154;48.810;9.012;2023-07-13T00:33:51;2.00;;;1.50;;
8225;SDS011;4154;48.810;9.012;2023-07-13T00:36:16;2.72;;;1.48;;
8225;SDS011;4154;48.810;9.012;2023-07-13T00:38:44;2.00;;;1.40;;
8225;SDS011;4154;48.810;9.012;2023-07-13T00:41:10;2.85;;;1.48;;
8225;SDS011;4154;48.810;9.012;2023-07-13T00:43:36;2.70;;;1.60;;
8225;SDS011;4154;48.810;9.012;2023-07-13T00:46:09;3.30;;;1.55;;
8225;SDS011;4154;48.810;9.012;2023-07-13T00:48:46;4.50;;;1.25;;
8225;SDS011;4154;48.810;9.012;2023-07-13T00:51:16;4.40;;;1.40;;
8225;SDS011;4154;48.810;9.012;2023-07-13T00:53:51;4.55;;;1.45;;
8225;SDS011;4154;48.810;9.012;2023-07-13T00:56:21;3.70;;;1.40;;
8225;SDS011;4154;48.810;9.012;2023-07-13T00:58:47;1.95;;;1.33;;
8225;SDS011;4154;48.810;9.012;2023-07-13T01:01:15;1.85;;;1.17;;
8225;SDS011;4154;48.810;9.012;2023-07-13T01:03:41;2.10;;;1.38;;
8225;SDS011;4154;48.810;9.012;2023-07-13T01:06:07;3.88;;;1.50;;
8225;SDS011;4154;48.810;9.012;2023-07-13T01:08:34;1.88;;;1.40;;
8225;SDS011;4154;48.810;9.012;2023-07-13T01:11:00;2.85;;;1.42;;
8225;SDS011;4154;48.810;9.012;2023-07-13T01:13:26;4.22;;;1.40;;
8225;SDS011;4154;48.810;9.012;2023-07-13T01:15:52;2.38;;;1.35;;
8225;SDS011;4154;48.810;9.012;2023-07-13T01:18:24;2.08;;;1.30;;
8225;SDS011;4154;48.810;9.012;2023-07-13T01:21:00;1.60;;;1.20;;
8225;SDS011;4154;48.810;9.012;2023-07-13T01:23:30;2.45;;;1.48;;
8225;SDS011;4154;48.810;9.012;2023-07-13T01:25:57;1.90;;;1.60;;
8225;SDS011;4154;48.810;9.012;2023-07-13T01:28:24;1.65;;;1.30;;
8225;SDS011;4154;48.810;9.012;2023-07-13T01:30:52;1.77;;;1.35;;
8225;SDS011;4154;48.810;9.012;2023-07-13T01:33:20;2.88;;;1.60;;
8225;SDS011;4154;48.810;9.012;2023-07-13T01:35:47;3.28;;;1.63;;
8225;SDS011;4154;48.810;9.012;2023-07-13T01:38:14;3.10;;;1.40;;
8225;SDS011;4154;48.810;9.012;2023-07-13T01:40:43;2.28;;;1.30;;
8225;SDS011;4154;48.810;9.012;2023-07-13T01:43:09;3.17;;;1.60;;
8225;SDS011;4154;48.810;9.012;2023-07-13T01:45:35;4.93;;;1.58;;
8225;SDS011;4154;48.810;9.012;2023-07-13T01:48:01;1.45;;;1.33;;
8225;SDS011;4154;48.810;9.012;2023-07-13T01:50:27;6.60;;;1.52;;
8225;SDS011;4154;48.810;9.012;2023-07-13T01:52:53;3.63;;;1.50;;
8225;SDS011;4154;48.810;9.012;2023-07-13T01:55:20;2.65;;;1.50;;
8225;SDS011;4154;48.810;9.012;2023-07-13T01:57:47;2.30;;;1.48;;
8225;SDS011;4154;48.810;9.012;2023-07-13T02:00:13;1.40;;;1.15;;
8225;SDS011;4154;48.810;9.012;2023-07-13T02:02:40;3.55;;;1.50;;
8225;SDS011;4154;48.810;9.012;2023-07-13T02:05:06;3.10;;;1.48;;
8225;SDS011;4154;48.810;9.012;2023-07-13T02:07:32;1.75;;;1.40;;
8225;SDS011;4154;48.810;9.012;2023-07-13T02:09:58;3.72;;;1.50;;
8225;SDS011;4154;48.810;9.012;2023-07-13T02:12:24;2.40;;;1.60;;
8225;SDS011;4154;48.810;9.012;2023-07-13T02:14:50;1.80;;;1.33;;
8225;SDS011;4154;48.810;9.012;2023-07-13T02:17:16;3.30;;;1.40;;
8225;SDS011;4154;48.810;9.012;2023-07-13T02:19:42;1.77;;;1.30;;
8225;SDS011;4154;48.810;9.012;2023-07-13T02:22:09;2.15;;;1.30;;
8225;SDS011;4154;48.810;9.012;2023-07-13T02:24:35;2.25;;;1.60;;
8225;SDS011;4154;48.810;9.012;2023-07-13T02:27:01;1.85;;;1.40;;
8225;SDS011;4154;48.810;9.012;2023-07-13T02:29:27;2.08;;;1.67;;
8225;SDS011;4154;48.810;9.012;2023-07-13T02:31:53;2.08;;;1.30;;
8225;SDS011;4154;48.810;9.012;2023-07-13T02:34:19;1.67;;;1.40;;
8225;SDS011;4154;48.810;9.012;2023-07-13T02:36:45;4.72;;;1.70;;
8225;SDS011;4154;48.810;9.012;2023-07-13T02:39:11;1.80;;;1.40;;
8225;SDS011;4154;48.810;9.012;2023-07-13T02:41:38;2.88;;;1.52;;
8225;SDS011;4154;48.810;9.012;2023-07-13T02:44:04;3.85;;;1.60;;
8225;SDS011;4154;48.810;9.012;2023-07-13T02:46:31;3.60;;;1.50;;
8225;SDS011;4154;48.810;9.012;2023-07-13T02:48:58;2.15;;;1.55;;
8225;SDS011;4154;48.810;9.012;2023-07-13T02:51:24;2.50;;;1.63;;
8225;SDS011;4154;48.810;9.012;2023-07-13T02:53:51;2.67;;;1.48;;
8225;SDS011;4154;48.810;9.012;2023-07-13T02:56:17;3.97;;;1.60;;
8225;SDS011;4154;48.810;9.012;2023-07-13T02:58:48;1.60;;;1.50;;
8225;SDS011;4154;48.810;9.012;2023-07-13T03:01:14;2.35;;;1.50;;
8225;SDS011;4154;48.810;9.012;2023-07-13T03:03:44;2.10;;;1.40;;
8225;SDS011;4154;48.810;9.012;2023-07-13T03:06:11;2.28;;;1.67;;
8225;SDS011;4154;48.810;9.012;2023-07-13T03:08:37;3.15;;;1.65;;
8225;SDS011;4154;48.810;9.012;2023-07-13T03:11:05;4.88;;;1.63;;
8225;SDS011;4154;48.810;9.012;2023-07-13T03:13:39;2.78;;;1.75;;
8225;SDS011;4154;48.810;9.012;2023-07-13T03:16:06;2.08;;;1.70;;
8225;SDS011;4154;48.810;9.012;2023-07-13T03:18:33;3.05;;;1.60;;
8225;SDS011;4154;48.810;9.012;2023-07-13T03:20:59;2.40;;;1.75;;
8225;SDS011;4154;48.810;9.012;2023-07-13T03:23:24;2.65;;;1.58;;
8225;SDS011;4154;48.810;9.012;2023-07-13T03:26:00;2.88;;;1.60;;
8225;SDS011;4154;48.810;9.012;2023-07-13T03:28:28;2.75;;;1.60;;
8225;SDS011;4154;48.810;9.012;2023-07-13T03:31:00;2.25;;;1.67;;
8225;SDS011;4154;48.810;9.012;2023-07-13T03:33:29;3.67;;;1.52;;
8225;SDS011;4154;48.810;9.012;2023-07-13T03:35:55;2.92;;;1.70;;
8225;SDS011;4154;48.810;9.012;2023-07-13T03:38:22;3.60;;;1.90;;
8225;SDS011;4154;48.810;9.012;2023-07-13T03:40:48;4.25;;;1.63;;
8225;SDS011;4154;48.810;9.012;2023-07-13T03:43:14;6.00;;;1.60;;
8225;SDS011;4154;48.810;9.012;2023-07-13T03:45:40;2.60;;;1.60;;
8225;SDS011;4154;48.810;9.012;2023-07-13T03:48:06;4.10;;;1.90;;
8225;SDS011;4154;48.810;9.012;2023-07-13T03:50:32;2.45;;;1.80;;
8225;SDS011;4154;48.810;9.012;2023-07-13T03:52:58;2.53;;;1.73;;
8225;SDS011;4154;48.810;9.012;2023-07-13T03:55:25;4.45;;;1.98;;
8225;SDS011;4154;48.810;9.012;2023-07-13T03:57:53;3.97;;;1.90;;
8225;SDS011;4154;48.810;9.012;2023-07-13T04:00:25;3.22;;;1.73;;
8225;SDS011;4154;48.810;9.012;2023-07-13T04:02:51;2.72;;;1.60;;
8225;SDS011;4154;48.810;9.012;2023-07-13T04:05:17;3.40;;;1.75;;
8225;SDS011;4154;48.810;9.012;2023-07-13T04:07:43;2.05;;;1.63;;
8225;SDS011;4154;48.810;9.012;2023-07-13T04:10:09;4.55;;;2.10;;
8225;SDS011;4154;48.810;9.012;2023-07-13T04:12:35;2.03;;;1.60;;
8225;SDS011;4154;48.810;9.012;2023-07-13T04:15:02;3.45;;;1.90;;
8225;SDS011;4154;48.810;9.012;2023-07-13T04:17:27;2.08;;;1.60;;
8225;SDS011;4154;48.810;9.012;2023-07-13T04:19:53;4.80;;;1.63;;
8225;SDS011;4154;48.810;9.012;2023-07-13T04:22:19;2.38;;;1.70;;
8225;SDS011;4154;48.810;9.012;2023-07-13T04:24:45;2.45;;;1.75;;
8225;SDS011;4154;48.810;9.012;2023-07-13T04:27:11;5.10;;;1.90;;
8225;SDS011;4154;48.810;9.012;2023-07-13T04:29:37;2.42;;;1.80;;
8225;SDS011;4154;48.810;9.012;2023-07-13T04:32:04;4.15;;;1.80;;
8225;SDS011;4154;48.810;9.012;2023-07-13T04:34:30;3.95;;;2.10;;
8225;SDS011;4154;48.810;9.012;2023-07-13T04:36:56;2.53;;;1.80;;
8225;SDS011;4154;48.810;9.012;2023-07-13T04:39:22;3.60;;;2.08;;
8225;SDS011;4154;48.810;9.012;2023-07-13T04:41:48;5.53;;;2.20;;
8225;SDS011;4154;48.810;9.012;2023-07-13T04:44:14;3.95;;;1.65;;
8225;SDS011;4154;48.810;9.012;2023-07-13T04:46:40;3.03;;;2.05;;
8225;SDS011;4154;48.810;9.012;2023-07-13T04:49:06;4.68;;;2.00;;
8225;SDS011;4154;48.810;9.012;2023-07-13T04:51:32;2.55;;;2.20;;
8225;SDS011;4154;48.810;9.012;2023-07-13T04:53:58;5.18;;;2.30;;
8225;SDS011;4154;48.810;9.012;2023-07-13T04:56:23;3.55;;;2.22;;
8225;SDS011;4154;48.810;9.012;2023-07-13T04:58:49;3.47;;;1.90;;
8225;SDS011;4154;48.810;9.012;2023-07-13T05:01:15;4.47;;;2.03;;
8225;SDS011;4154;48.810;9.012;2023-07-13T05:03:41;3.05;;;1.90;;
8225;SDS011;4154;48.810;9.012;2023-07-13T05:06:08;2.35;;;1.80;;
8225;SDS011;4154;48.810;9.012;2023-07-13T05:08:39;4.22;;;2.05;;
8225;SDS011;4154;48.810;9.012;2023-07-13T05:11:11;2.30;;;2.00;;
8225;SDS011;4154;48.810;9.012;2023-07-13T05:13:37;3.85;;;2.10;;
8225;SDS011;4154;48.810;9.012;2023-07-13T05:16:03;5.28;;;2.20;;
8225;SDS011;4154;48.810;9.012;2023-07-13T05:18:33;2.75;;;1.88;;
8225;SDS011;4154;48.810;9.012;2023-07-13T05:21:01;3.50;;;2.00;;
8225;SDS011;4154;48.810;9.012;2023-07-13T05:23:33;4.53;;;2.30;;
8225;SDS011;4154;48.810;9.012;2023-07-13T05:26:00;3.15;;;2.35;;
8225;SDS011;4154;48.810;9.012;2023-07-13T05:28:28;2.60;;;2.20;;
8225;SDS011;4154;48.810;9.012;2023-07-13T05:30:55;2.45;;;2.25;;
8225;SDS011;4154;48.810;9.012;2023-07-13T05:33:21;2.63;;;2.10;;
8225;SDS011;4154;48.810;9.012;2023-07-13T05:35:48;3.45;;;2.30;;
8225;SDS011;4154;48.810;9.012;2023-07-13T05:38:14;3.08;;;2.22;;
8225;SDS011;4154;48.810;9.012;2023-07-13T05:40:42;3.10;;;2.30;;
8225;SDS011;4154;48.810;9.012;2023-07-13T05:43:09;4.10;;;2.30;;
8225;SDS011;4154;48.810;9.012;2023-07-13T05:45:35;6.05;;;2.30;;
8225;SDS011;4154;48.810;9.012;2023-07-13T05:48:01;5.32;;;2.50;;
8225;SDS011;4154;48.810;9.012;2023-07-13T05:50:27;3.50;;;2.20;;
8225;SDS011;4154;48.810;9.012;2023-07-13T05:52:53;3.72;;;2.38;;
8225;SDS011;4154;48.810;9.012;2023-07-13T05:55:20;4.50;;;2.20;;
8225;SDS011;4154;48.810;9.012;2023-07-13T05:57:45;4.68;;;2.40;;
8225;SDS011;4154;48.810;9.012;2023-07-13T06:00:12;5.30;;;2.50;;
8225;SDS011;4154;48.810;9.012;2023-07-13T06:02:38;4.82;;;2.60;;
8225;SDS011;4154;48.810;9.012;2023-07-13T06:05:04;3.65;;;2.65;;
8225;SDS011;4154;48.810;9.012;2023-07-13T06:07:30;3.85;;;2.17;;
8225;SDS011;4154;48.810;9.012;2023-07-13T06:09:56;4.95;;;2.47;;
8225;SDS011;4154;48.810;9.012;2023-07-13T06:12:24;3.53;;;2.50;;
8225;SDS011;4154;48.810;9.012;2023-07-13T06:14:50;2.65;;;2.15;;
8225;SDS011;4154;48.810;9.012;2023-07-13T06:17:16;3.85;;;2.30;;
8225;SDS011;4154;48.810;9.012;2023-07-13T06:19:42;3.05;;;1.90;;
8225;SDS011;4154;48.810;9.012;2023-07-13T06:22:09;2.55;;;1.65;;
8225;SDS011;4154;48.810;9.012;2023-07-13T06:24:35;2.70;;;1.90;;
8225;SDS011;4154;48.810;9.012;2023-07-13T06:27:01;3.08;;;2.03;;
8225;SDS011;4154;48.810;9.012;2023-07-13T06:29:27;3.80;;;1.92;;
8225;SDS011;4154;48.810;9.012;2023-07-13T06:31:53;4.07;;;2.03;;
8225;SDS011;4154;48.810;9.012;2023-07-13T06:34:19;2.40;;;1.85;;
8225;SDS011;4154;48.810;9.012;2023-07-13T06:36:46;3.63;;;1.90;;
8225;SDS011;4154;48.810;9.012;2023-07-13T06:39:12;5.05;;;1.80;;
8225;SDS011;4154;48.810;9.012;2023-07-13T06:41:38;3.50;;;1.70;;
8225;SDS011;4154;48.810;9.012;2023-07-13T06:44:04;3.13;;;1.90;;
8225;SDS011;4154;48.810;9.012;2023-07-13T06:46:31;2.83;;;1.70;;
8225;SDS011;4154;48.810;9.012;2023-07-13T06:48:57;4.72;;;2.08;;
8225;SDS011;4154;48.810;9.012;2023-07-13T06:51:23;3.13;;;1.92;;
8225;SDS011;4154;48.810;9.012;2023-07-13T06:53:50;2.97;;;1.67;;
8225;SDS011;4154;48.810;9.012;2023-07-13T06:56:17;2.60;;;1.70;;
8225;SDS011;4154;48.810;9.012;2023-07-13T06:58:43;4.53;;;1.63;;
8225;SDS011;4154;48.810;9.012;2023-07-13T07:01:09;1.67;;;1.42;;
8225;SDS011;4154;48.810;9.012;2023-07-13T07:03:35;2.15;;;1.67;;
8225;SDS011;4154;48.810;9.012;2023-07-13T07:06:22;5.22;;;1.60;;
8225;SDS011;4154;48.810;9.012;2023-07-13T07:08:51;2.45;;;1.58;;
8225;SDS011;4154;48.810;9.012;2023-07-13T07:11:20;2.90;;;1.70;;
8225;SDS011;4154;48.810;9.012;2023-07-13T07:13:53;2.30;;;1.50;;
8225;SDS011;4154;48.810;9.012;2023-07-13T07:16:19;4.68;;;1.70;;
8225;SDS011;4154;48.810;9.012;2023-07-13T07:18:46;2.08;;;1.45;;
8225;SDS011;4154;48.810;9.012;2023-07-13T07:21:13;2.75;;;1.73;;
8225;SDS011;4154;48.810;9.012;2023-07-13T07:23:40;2.47;;;1.50;;
8225;SDS011;4154;48.810;9.012;2023-07-13T07:26:07;2.85;;;1.60;;
8225;SDS011;4154;48.810;9.012;2023-07-13T07:28:35;3.70;;;1.70;;
8225;SDS011;4154;48.810;9.012;2023-07-13T07:31:01;2.28;;;1.60;;
8225;SDS011;4154;48.810;9.012;2023-07-13T07:33:27;1.77;;;1.40;;
8225;SDS011;4154;48.810;9.012;2023-07-13T07:35:53;3.08;;;1.60;;
8225;SDS011;4154;48.810;9.012;2023-07-13T07:38:19;2.60;;;1.75;;
8225;SDS011;4154;48.810;9.012;2023-07-13T07:40:46;2.90;;;1.70;;
8225;SDS011;4154;48.810;9.012;2023-07-13T07:43:12;2.20;;;1.40;;
8225;SDS011;4154;48.810;9.012;2023-07-13T07:45:38;1.77;;;1.30;;
8225;SDS011;4154;48.810;9.012;2023-07-13T07:48:05;2.85;;;1.55;;
8225;SDS011;4154;48.810;9.012;2023-07-13T07:50:34;3.20;;;1.50;;
8225;SDS011;4154;48.810;9.012;2023-07-13T07:53:00;1.70;;;1.40;;
8225;SDS011;4154;48.810;9.012;2023-07-13T07:55:27;2.85;;;1.70;;
8225;SDS011;4154;48.810;9.012;2023-07-13T07:57:54;1.80;;;1.50;;
8225;SDS011;4154;48.810;9.012;2023-07-13T08:00:21;3.38;;;1.50;;
8225;SDS011;4154;48.810;9.012;2023-07-13T08:02:47;2.25;;;1.58;;
8225;SDS011;4154;48.810;9.012;2023-07-13T08:05:13;3.38;;;1.50;;
8225;SDS011;4154;48.810;9.012;2023-07-13T08:07:39;2.08;;;1.80;;
8225;SDS011;4154;48.810;9.012;2023-07-13T08:10:06;3.17;;;1.50;;
8225;SDS011;4154;48.810;9.012;2023-07-13T08:12:36;3.83;;;1.50;;
8225;SDS011;4154;48.810;9.012;2023-07-13T08:15:04;1.92;;;1.40;;
8225;SDS011;4154;48.810;9.012;2023-07-13T08:17:31;1.80;;;1.25;;
8225;SDS011;4154;48.810;9.012;2023-07-13T08:19:57;1.50;;;1.40;;
8225;SDS011;4154;48.810;9.012;2023-07-13T08:22:23;1.90;;;1.40;;
8225;SDS011;4154;48.810;9.012;2023-07-13T08:24:48;2.85;;;1.40;;
8225;SDS011;4154;48.810;9.012;2023-07-13T08:27:20;4.03;;;1.50;;
8225;SDS011;4154;48.810;9.012;2023-07-13T08:29:51;2.28;;;1.20;;
8225;SDS011;4154;48.810;9.012;2023-07-13T08:32:18;2.38;;;1.30;;
8225;SDS011;4154;48.810;9.012;2023-07-13T08:34:46;2.25;;;1.60;;
8225;SDS011;4154;48.810;9.012;2023-07-13T08:37:12;2.10;;;1.70;;
8225;SDS011;4154;48.810;9.012;2023-07-13T08:39:39;2.20;;;1.50;;
8225;SDS011;4154;48.810;9.012;2023-07-13T08:42:07;1.77;;;1.30;;
8225;SDS011;4154;48.810;9.012;2023-07-13T08:45:00;3.45;;;1.35;;
8225;SDS011;4154;48.810;9.012;2023-07-13T08:48:02;2.17;;;1.30;;
8225;SDS011;4154;48.810;9.012;2023-07-13T08:50:38;3.10;;;1.30;;
8225;SDS011;4154;48.810;9.012;2023-07-13T08:53:16;2.22;;;1.30;;
8225;SDS011;4154;48.810;9.012;2023-07-13T08:55:43;1.67;;;1.30;;
8225;SDS011;4154;48.810;9.012;2023-07-13T09:05:33;2.70;;;1.40;;
8225;SDS011;4154;48.810;9.012;2023-07-13T09:07:40;2.78;;;1.20;;
8225;SDS011;4154;48.810;9.012;2023-07-13T09:10:47;1.42;;;1.33;;
8225;SDS011;4154;48.810;9.012;2023-07-13T09:16:04;1.95;;;1.42;;
8225;SDS011;4154;48.810;9.012;2023-07-13T09:21:22;3.33;;;1.50;;
8225;SDS011;4154;48.810;9.012;2023-07-13T09:27:12;2.03;;;1.30;;
8225;SDS011;4154;48.810;9.012;2023-07-13T09:29:52;2.45;;;1.45;;
8225;SDS011;4154;48.810;9.012;2023-07-13T09:32:30;2.53;;;1.40;;
8225;SDS011;4154;48.810;9.012;2023-07-13T09:34:57;2.88;;;1.60;;
8225;SDS011;4154;48.810;9.012;2023-07-13T09:37:30;2.97;;;1.45;;
8225;SDS011;4154;48.810;9.012;2023-07-13T09:40:02;2.55;;;1.60;;
8225;SDS011;4154;48.810;9.012;2023-07-13T09:43:04;2.65;;;1.40;;
8225;SDS011;4154;48.810;9.012;2023-07-13T09:45:43;3.67;;;1.40;;
8225;SDS011;4154;48.810;9.012;2023-07-13T09:48:14;2.55;;;1.23;;
8225;SDS011;4154;48.810;9.012;2023-07-13T09:51:13;3.63;;;1.40;;
8225;SDS011;4154;48.810;9.012;2023-07-13T09:53:44;1.75;;;1.30;;
8225;SDS011;4154;48.810;9.012;2023-07-13T09:56:41;2.47;;;1.48;;
8225;SDS011;4154;48.810;9.012;2023-07-13T09:59:17;2.30;;;1.30;;
8225;SDS011;4154;48.810;9.012;2023-07-13T10:01:49;3.17;;;1.60;;
8225;SDS011;4154;48.810;9.012;2023-07-13T10:04:19;1.80;;;1.38;;
8225;SDS011;4154;48.810;9.012;2023-07-13T10:06:52;2.03;;;1.40;;
8225;SDS011;4154;48.810;9.012;2023-07-13T10:09:32;2.90;;;1.50;;
8225;SDS011;4154;48.810;9.012;2023-07-13T10:11:59;1.60;;;1.40;;
8225;SDS011;4154;48.810;9.012;2023-07-13T10:14:25;2.75;;;1.50;;
8225;SDS011;4154;48.810;9.012;2023-07-13T10:16:53;3.78;;;1.40;;
8225;SDS011;4154;48.810;9.012;2023-07-13T10:19:28;2.15;;;1.42;;
8225;SDS011;4154;48.810;9.012;2023-07-13T10:22:01;2.92;;;1.40;;
8225;SDS011;4154;48.810;9.012;2023-07-13T10:24:52;4.88;;;1.92;;
8225;SDS011;4154;48.810;9.012;2023-07-13T10:27:45;2.45;;;1.80;;
8225;SDS011;4154;48.810;9.012;2023-07-13T10:30:17;2.45;;;1.55;;
8225;SDS011;4154;48.810;9.012;2023-07-13T10:33:05;1.73;;;1.35;;
8225;SDS011;4154;48.810;9.012;2023-07-13T10:35:42;2.65;;;1.50;;
8225;SDS011;4154;48.810;9.012;2023-07-13T10:38:14;2.08;;;1.23;;
8225;SDS011;4154;48.810;9.012;2023-07-13T10:40:56;2.38;;;1.30;;
8225;SDS011;4154;48.810;9.012;2023-07-13T10:43:45;1.45;;;1.20;;
8225;SDS011;4154;48.810;9.012;2023-07-13T10:46:20;2.22;;;1.30;;
8225;SDS011;4154;48.810;9.012;2023-07-13T10:48:56;2.85;;;1.52;;
8225;SDS011;4154;48.810;9.012;2023-07-13T10:51:29;2.75;;;1.50;;
8225;SDS011;4154;48.810;9.012;2023-07-13T10:54:19;2.88;;;1.42;;
8225;SDS011;4154;48.810;9.012;2023-07-13T10:59:42;2.42;;;1.50;;
8225;SDS011;4154;48.810;9.012;2023-07-13T11:02:28;2.22;;;1.30;;
8225;SDS011;4154;48.810;9.012;2023-07-13T11:04:57;2.42;;;1.52;;
8225;SDS011;4154;48.810;9.012;2023-07-13T11:07:27;2.40;;;1.45;;
8225;SDS011;4154;48.810;9.012;2023-07-13T11:09:59;1.88;;;1.42;;
8225;SDS011;4154;48.810;9.012;2023-07-13T11:15:26;2.10;;;1.40;;
8225;SDS011;4154;48.810;9.012;2023-07-13T11:17:57;1.73;;;1.45;;
8225;SDS011;4154;48.810;9.012;2023-07-13T11:20:33;3.70;;;1.50;;
8225;SDS011;4154;48.810;9.012;2023-07-13T11:25:36;1.45;;;1.30;;
8225;SDS011;4154;48.810;9.012;2023-07-13T11:30:36;2.67;;;1.50;;
8225;SDS011;4154;48.810;9.012;2023-07-13T11:33:28;2.53;;;1.40;;
8225;SDS011;4154;48.810;9.012;2023-07-13T11:36:04;3.92;;;1.40;;
8225;SDS011;4154;48.810;9.012;2023-07-13T11:38:38;3.47;;;1.45;;
8225;SDS011;4154;48.810;9.012;2023-07-13T11:41:10;3.30;;;1.65;;
8225;SDS011;4154;48.810;9.012;2023-07-13T11:43:54;1.38;;;1.27;;
8225;SDS011;4154;48.810;9.012;2023-07-13T11:46:28;1.50;;;1.40;;
8225;SDS011;4154;48.810;9.012;2023-07-13T11:48:54;4.63;;;1.60;;
8225;SDS011;4154;48.810;9.012;2023-07-13T11:51:21;2.25;;;1.50;;
8225;SDS011;4154;48.810;9.012;2023-07-13T11:53:53;3.80;;;1.45;;
8225;SDS011;4154;48.810;9.012;2023-07-13T11:56:22;3.95;;;1.60;;
8225;SDS011;4154;48.810;9.012;2023-07-13T11:58:53;2.40;;;1.65;;
8225;SDS011;4154;48.810;9.012;2023-07-13T12:01:30;2.13;;;1.70;;
8225;SDS011;4154;48.810;9.012;2023-07-13T12:03:58;3.10;;;1.70;;
8225;SDS011;4154;48.810;9.012;2023-07-13T12:06:29;2.15;;;1.60;;
8225;SDS011;4154;48.810;9.012;2023-07-13T12:09:02;2.03;;;1.63;;
8225;SDS011;4154;48.810;9.012;2023-07-13T12:11:38;5.22;;;1.95;;
8225;SDS011;4154;48.810;9.012;2023-07-13T12:14:14;2.30;;;1.60;;
8225;SDS011;4154;48.810;9.012;2023-07-13T12:16:41;2.00;;;1.50;;
8225;SDS011;4154;48.810;9.012;2023-07-13T12:19:14;4.45;;;1.67;;
8225;SDS011;4154;48.810;9.012;2023-07-13T12:21:48;2.50;;;1.75;;
8225;SDS011;4154;48.810;9.012;2023-07-13T12:24:18;2.20;;;1.60;;
8225;SDS011;4154;48.810;9.012;2023-07-13T12:26:51;2.83;;;1.60;;
8225;SDS011;4154;48.810;9.012;2023-07-13T12:29:24;2.22;;;1.60;;
8225;SDS011;4154;48.810;9.012;2023-07-13T12:31:53;3.08;;;1.40;;
8225;SDS011;4154;48.810;9.012;2023-07-13T12:34:21;2.58;;;1.60;;
8225;SDS011;4154;48.810;9.012;2023-07-13T12:36:51;4.10;;;1.70;;
8225;SDS011;4154;48.810;9.012;2023-07-13T12:39:22;3.22;;;1.60;;
8225;SDS011;4154;48.810;9.012;2023-07-13T12:42:16;2.85;;;1.50;;
8225;SDS011;4154;48.810;9.012;2023-07-13T12:44:53;2.80;;;1.60;;
8225;SDS011;4154;48.810;9.012;2023-07-13T12:47:25;3.13;;;1.77;;
8225;SDS011;4154;48.810;9.012;2023-07-13T12:49:56;4.10;;;2.30;;
8225;SDS011;4154;48.810;9.012;2023-07-13T12:52:31;3.38;;;2.97;;
8225;SDS011;4154;48.810;9.012;2023-07-13T12:55:04;3.45;;;2.55;;
8225;SDS011;4154;48.810;9.012;2023-07-13T13:00:40;2.55;;;1.77;;
8225;SDS011;4154;48.810;9.012;2023-07-13T13:03:49;2.30;;;1.70;;
8225;SDS011;4154;48.810;9.012;2023-07-13T13:06:23;3.03;;;2.30;;
8225;SDS011;4154;48.810;9.012;2023-07-13T13:09:00;3.13;;;1.90;;
8225;SDS011;4154;48.810;9.012;2023-07-13T13:11:34;2.58;;;1.70;;
8225;SDS011;4154;48.810;9.012;2023-07-13T13:14:00;4.85;;;2.15;;
8225;SDS011;4154;48.810;9.012;2023-07-13T13:19:20;3.53;;;1.80;;
8225;SDS011;4154;48.810;9.012;2023-07-13T13:22:07;2.97;;;1.83;;
8225;SDS011;4154;48.810;9.012;2023-07-13T13:24:43;2.90;;;1.70;;
8225;SDS011;4154;48.810;9.012;2023-07-13T13:27:40;2.55;;;1.50;;
8225;SDS011;4154;48.810;9.012;2023-07-13T13:30:11;2.90;;;1.50;;
8225;SDS011;4154;48.810;9.012;2023-07-13T13:32:49;4.20;;;1.70;;
8225;SDS011;4154;48.810;9.012;2023-07-13T13:35:18;1.85;;;1.58;;
8225;SDS011;4154;48.810;9.012;2023-07-13T13:37:48;1.98;;;1.40;;
8225;SDS011;4154;48.810;9.012;2023-07-13T13:40:26;2.47;;;1.40;;
8225;SDS011;4154;48.810;9.012;2023-07-13T13:42:52;2.97;;;1.50;;
8225;SDS011;4154;48.810;9.012;2023-07-13T13:45:24;2.15;;;1.63;;
8225;SDS011;4154;48.810;9.012;2023-07-13T13:47:57;4.07;;;1.50;;
8225;SDS011;4154;48.810;9.012;2023-07-13T13:50:44;2.90;;;1.50;;
8225;SDS011;4154;48.810;9.012;2023-07-13T13:53:12;3.10;;;1.70;;
8225;SDS011;4154;48.810;9.012;2023-07-13T13:55:41;2.28;;;1.50;;
8225;SDS011;4154;48.810;9.012;2023-07-13T13:58:24;2.72;;;1.65;;
8225;SDS011;4154;48.810;9.012;2023-07-13T14:01:12;5.57;;;1.60;;
8225;SDS011;4154;48.810;9.012;2023-07-13T14:04:04;3.70;;;1.50;;
8225;SDS011;4154;48.810;9.012;2023-07-13T14:06:31;2.88;;;1.75;;
8225;SDS011;4154;48.810;9.012;2023-07-13T14:08:59;1.70;;;1.38;;
8225;SDS011;4154;48.810;9.012;2023-07-13T14:11:26;2.45;;;1.50;;
8225;SDS011;4154;48.810;9.012;2023-07-13T14:13:54;3.67;;;1.40;;
8225;SDS011;4154;48.810;9.012;2023-07-13T14:16:26;3.67;;;1.67;;
8225;SDS011;4154;48.810;9.012;2023-07-13T14:18:56;2.80;;;1.55;;
8225;SDS011;4154;48.810;9.012;2023-07-13T14:21:28;4.55;;;1.48;;
8225;SDS011;4154;48.810;9.012;2023-07-13T14:23:57;3.17;;;1.42;;
8225;SDS011;4154;48.810;9.012;2023-07-13T14:26:23;2.22;;;1.60;;
8225;SDS011;4154;48.810;9.012;2023-07-13T14:28:55;3.08;;;1.60;;
8225;SDS011;4154;48.810;9.012;2023-07-13T14:34:12;2.90;;;1.48;;
8225;SDS011;4154;48.810;9.012;2023-07-13T14:36:46;2.67;;;1.58;;
8225;SDS011;4154;48.810;9.012;2023-07-13T14:39:22;2.97;;;1.50;;
8225;SDS011;4154;48.810;9.012;2023-07-13T14:41:55;4.50;;;1.73;;
8225;SDS011;4154;48.810;9.012;2023-07-13T14:44:29;3.40;;;1.70;;
8225;SDS011;4154;48.810;9.012;2023-07-13T14:47:07;3.03;;;1.63;;
8225;SDS011;4154;48.810;9.012;2023-07-13T14:49:47;2.28;;;1.42;;
8225;SDS011;4154;48.810;9.012;2023-07-13T14:52:21;2.35;;;1.48;;
8225;SDS011;4154;48.810;9.012;2023-07-13T14:55:27;3.85;;;1.67;;
8225;SDS011;4154;48.810;9.012;2023-07-13T14:58:00;2.85;;;1.80;;
8225;SDS011;4154;48.810;9.012;2023-07-13T15:00:52;3.55;;;1.73;;
8225;SDS011;4154;48.810;9.012;2023-07-13T15:03:36;5.53;;;1.95;;
8225;SDS011;4154;48.810;9.012;2023-07-13T15:06:11;2.30;;;1.50;;
8225;SDS011;4154;48.810;9.012;2023-07-13T15:08:49;2.67;;;1.55;;
8225;SDS011;4154;48.810;9.012;2023-07-13T15:11:18;3.75;;;1.80;;
8225;SDS011;4154;48.810;9.012;2023-07-13T15:13:49;2.58;;;1.60;;
8225;SDS011;4154;48.810;9.012;2023-07-13T15:16:20;3.78;;;1.90;;
8225;SDS011;4154;48.810;9.012;2023-07-13T15:18:59;4.97;;;2.20;;
8225;SDS011;4154;48.810;9.012;2023-07-13T15:21:27;5.07;;;1.80;;
8225;SDS011;4154;48.810;9.012;2023-07-13T15:24:15;3.00;;;1.70;;
8225;SDS011;4154;48.810;9.012;2023-07-13T15:26:51;5.03;;;1.60;;
8225;SDS011;4154;48.810;9.012;2023-07-13T15:29:17;4.38;;;1.52;;
8225;SDS011;4154;48.810;9.012;2023-07-13T15:31:48;2.03;;;1.55;;
8225;SDS011;4154;48.810;9.012;2023-07-13T15:34:19;3.22;;;1.60;;
8225;SDS011;4154;48.810;9.012;2023-07-13T15:37:25;1.73;;;1.60;;
8225;SDS011;4154;48.810;9.012;2023-07-13T15:39:51;2.67;;;1.42;;
8225;SDS011;4154;48.810;9.012;2023-07-13T15:42:18;2.42;;;1.58;;
8225;SDS011;4154;48.810;9.012;2023-07-13T15:44:46;3.42;;;1.30;;
8225;SDS011;4154;48.810;9.012;2023-07-13T15:47:13;2.97;;;1.50;;
8225;SDS011;4154;48.810;9.012;2023-07-13T15:49:40;2.05;;;1.30;;
8225;SDS011;4154;48.810;9.012;2023-07-13T15:52:16;3.00;;;1.52;;
8225;SDS011;4154;48.810;9.012;2023-07-13T15:54:46;4.40;;;1.60;;
8225;SDS011;4154;48.810;9.012;2023-07-13T15:57:13;2.85;;;1.45;;
8225;SDS011;4154;48.810;9.012;2023-07-13T15:59:40;2.38;;;1.50;;
8225;SDS011;4154;48.810;9.012;2023-07-13T16:02:16;1.45;;;1.27;;
8225;SDS011;4154;48.810;9.012;2023-07-13T16:04:44;2.67;;;1.33;;
8225;SDS011;4154;48.810;9.012;2023-07-13T16:07:11;2.78;;;1.60;;
8225;SDS011;4154;48.810;9.012;2023-07-13T16:09:42;3.35;;;1.63;;
8225;SDS011;4154;48.810;9.012;2023-07-13T16:12:12;3.30;;;1.45;;